sensor_id;sensor_type;location;lat;lon;timestamp;pressure;altitude;pressure_sealevel;temperature;humidity
36304;BME280;22335;49.800;8.596;2022-09-09T00:02:02;99657.78;;;19.33;51.38
36304;BME280;22335;49.800;8.596;2022-09-09T00:09:02;99865.81;;;20.78;51.53
36304;BME280;22335;49.800;8.596;2022-09-09T00:15:57;99839.66;;;20.60;51.44
36304;BME280;22335;49.800;8.596;2022-09-09T00:22:49;99743.78;;;20.08;51.50
36304;BME280;22335;49.800;8.596;2022-09-09T00:29:47;99940.63;;;21.29;51.71
36304;BME280;22335;49.800;8.596;2022-09-09T00:36:39;99800.16;;;20.31;52.06
36304;BME280;22335;49.800;8.596;2022-09-09T00:43:28;99895.63;;;21.01;52.13
36304;BME280;22335;49.800;8.596;2022-09-09T00:50:42;99607.94;;;19.18;52.16
36304;BME280;22335;49.800;8.596;2022-09-09T00:57:32;99975.97;;;21.48;51.85
36304;BME280;22335;49.800;8.596;2022-09-09T01:04:27;99982.34;;;21.49;52.32
36304;BME280;22335;49.800;8.596;2022-09-09T01:11:51;99240.63;;;16.78;52.02
36304;BME280;22335;49.800;8.596;2022-09-09T01:18:48;99957.50;;;21.59;51.28
36304;BME280;22335;49.800;8.596;2022-09-09T01:26:13;99951.63;;;21.41;52.32
36304;BME280;22335;49.800;8.596;2022-09-09T01:33:37;99562.00;;;18.81;52.12
36304;BME280;22335;49.800;8.596;2022-09-09T01:40:24;99236.22;;;16.46;52.48
36304;BME280;22335;49.800;8.596;2022-09-09T01:47:18;99549.19;;;18.41;52.91
36304;BME280;22335;49.800;8.596;2022-09-09T01:54:34;99905.63;;;20.63;52.78
36304;BME280;22335;49.800;8.596;2022-09-09T02:01:36;99775.59;;;19.94;52.93
36304;BME280;22335;49.800;8.596;2022-09-09T02:08:42;99984.66;;;21.04;53.50
36304;BME280;22335;49.800;8.596;2022-09-09T02:15:34;99602.59;;;18.58;53.58
36304;BME280;22335;49.800;8.596;2022-09-09T02:22:25;99377.81;;;17.18;53.62
36304;BME280;22335;49.800;8.596;2022-09-09T02:29:20;99651.19;;;18.87;54.05
36304;BME280;22335;49.800;8.596;2022-09-09T02:36:12;99646.56;;;18.75;54.27
36304;BME280;22335;49.800;8.596;2022-09-09T02:43:00;99718.78;;;19.33;54.46
36304;BME280;22335;49.800;8.596;2022-09-09T03:03:44;99621.56;;;18.40;54.88
36304;BME280;22335;49.800;8.596;2022-09-09T03:10:36;99238.53;;;16.00;55.13
36304;BME280;22335;49.800;8.596;2022-09-09T03:17:28;99382.34;;;17.11;55.06
36304;BME280;22335;49.800;8.596;2022-09-09T03:24:23;99243.09;;;16.08;55.42
36304;BME280;22335;49.800;8.596;2022-09-09T03:31:10;99535.66;;;17.89;55.19
36304;BME280;22335;49.800;8.596;2022-09-09T03:37:57;99631.63;;;18.48;55.29
36304;BME280;22335;49.800;8.596;2022-09-09T03:44:49;99596.28;;;18.26;55.84
36304;BME280;22335;49.800;8.596;2022-09-09T03:51:39;99867.56;;;19.93;55.99
36304;BME280;22335;49.800;8.596;2022-09-09T03:58:28;99639.22;;;18.35;56.18
36304;BME280;22335;49.800;8.596;2022-09-09T04:05:22;99748.78;;;19.12;56.43
36304;BME280;22335;49.800;8.596;2022-09-09T04:12:09;99310.34;;;16.31;56.49
36304;BME280;22335;49.800;8.596;2022-09-09T04:18:56;99559.66;;;18.01;56.39
36304;BME280;22335;49.800;8.596;2022-09-09T04:25:47;99959.59;;;20.46;56.70
36304;BME280;22335;49.800;8.596;2022-09-09T04:32:35;99725.56;;;18.85;56.95
36304;BME280;22335;49.800;8.596;2022-09-09T04:39:22;99437.88;;;16.77;56.64
36304;BME280;22335;49.800;8.596;2022-09-09T04:46:11;99969.41;;;20.24;56.42
36304;BME280;22335;49.800;8.596;2022-09-09T04:53:01;99503.25;;;17.01;56.94
36304;BME280;22335;49.800;8.596;2022-09-09T04:59:50;99713.78;;;18.12;57.59
36304;BME280;22335;49.800;8.596;2022-09-09T05:06:39;99607.13;;;17.31;57.73
36304;BME280;22335;49.800;8.596;2022-09-09T05:13:27;99875.72;;;18.91;57.73
36304;BME280;22335;49.800;8.596;2022-09-09T05:20:14;100034.75;;;19.86;58.31
36304;BME280;22335;49.800;8.596;2022-09-09T05:27:04;99386.44;;;15.80;58.10
36304;BME280;22335;49.800;8.596;2022-09-09T05:33:55;100031.44;;;19.80;58.26
36304;BME280;22335;49.800;8.596;2022-09-09T05:40:47;99908.31;;;19.09;58.58
36304;BME280;22335;49.800;8.596;2022-09-09T05:47:37;99647.38;;;17.16;58.48
36304;BME280;22335;49.800;8.596;2022-09-09T05:54:28;99955.28;;;19.34;58.39
36304;BME280;22335;49.800;8.596;2022-09-09T06:01:17;99685.38;;;17.59;58.32
36304;BME280;22335;49.800;8.596;2022-09-09T06:08:08;99418.72;;;15.79;58.76
36304;BME280;22335;49.800;8.596;2022-09-09T06:14:55;99364.94;;;15.73;58.66
36304;BME280;22335;49.800;8.596;2022-09-09T06:21:44;99619.94;;;17.51;58.74
36304;BME280;22335;49.800;8.596;2022-09-09T06:28:36;99254.97;;;15.31;58.73
36304;BME280;22335;49.800;8.596;2022-09-09T06:35:25;99718.88;;;18.26;58.30
36304;BME280;22335;49.800;8.596;2022-09-09T06:42:12;99932.31;;;19.81;58.60
36304;BME280;22335;49.800;8.596;2022-09-09T06:49:04;99947.69;;;19.94;58.20
36304;BME280;22335;49.800;8.596;2022-09-09T06:55:50;99868.25;;;19.54;57.98
36304;BME280;22335;49.800;8.596;2022-09-09T07:02:37;100056.50;;;20.83;58.10
36304;BME280;22335;49.800;8.596;2022-09-09T07:09:32;99655.50;;;18.37;58.20
36304;BME280;22335;49.800;8.596;2022-09-09T07:16:20;99712.31;;;18.62;58.10
36304;BME280;22335;49.800;8.596;2022-09-09T07:23:07;100043.47;;;20.87;58.38
36304;BME280;22335;49.800;8.596;2022-09-09T07:30:00;99948.31;;;20.03;58.39
36304;BME280;22335;49.800;8.596;2022-09-09T07:36:47;100072.16;;;20.91;58.33
36304;BME280;22335;49.800;8.596;2022-09-09T07:43:34;99870.31;;;19.57;57.88
36304;BME280;22335;49.800;8.596;2022-09-09T07:50:25;99860.34;;;19.72;58.29
36304;BME280;22335;49.800;8.596;2022-09-09T07:57:12;99972.50;;;20.54;58.18
36304;BME280;22335;49.800;8.596;2022-09-09T08:04:03;100021.47;;;20.98;57.88
36304;BME280;22335;49.800;8.596;2022-09-09T08:10:53;100088.13;;;21.52;58.02
36304;BME280;22335;49.800;8.596;2022-09-09T08:17:46;100082.84;;;21.67;57.28
36304;BME280;22335;49.800;8.596;2022-09-09T08:24:32;100086.47;;;21.90;57.11
36304;BME280;22335;49.800;8.596;2022-09-09T08:31:22;99374.69;;;17.51;56.75
36304;BME280;22335;49.800;8.596;2022-09-09T08:38:10;99832.84;;;20.57;56.07
36304;BME280;22335;49.800;8.596;2022-09-09T08:45:19;99893.16;;;21.18;55.53
36304;BME280;22335;49.800;8.596;2022-09-09T08:52:19;99995.34;;;21.87;55.96
36304;BME280;22335;49.800;8.596;2022-09-09T08:59:17;99852.34;;;21.26;55.14
36304;BME280;22335;49.800;8.596;2022-09-09T09:06:20;99809.41;;;20.78;54.78
36304;BME280;22335;49.800;8.596;2022-09-09T09:13:24;99814.66;;;21.06;54.96
36304;BME280;22335;49.800;8.596;2022-09-09T09:20:16;99782.25;;;20.90;54.55
36304;BME280;22335;49.800;8.596;2022-09-09T09:27:12;99813.66;;;21.17;54.34
36304;BME280;22335;49.800;8.596;2022-09-09T09:34:07;99781.56;;;20.74;54.02
36304;BME280;22335;49.800;8.596;2022-09-09T09:40:57;99955.06;;;22.07;53.98
36304;BME280;22335;49.800;8.596;2022-09-09T09:47:45;99838.66;;;21.63;54.00
36304;BME280;22335;49.800;8.596;2022-09-09T09:54:38;99738.44;;;21.07;53.22
36304;BME280;22335;49.800;8.596;2022-09-09T10:01:28;100072.28;;;23.65;53.35
36304;BME280;22335;49.800;8.596;2022-09-09T10:08:19;100001.88;;;23.42;53.18
36304;BME280;22335;49.800;8.596;2022-09-09T10:15:24;99397.13;;;19.56;52.09
36304;BME280;22335;49.800;8.596;2022-09-09T10:22:26;99741.84;;;21.76;51.94
36304;BME280;22335;49.800;8.596;2022-09-09T10:29:29;100054.47;;;23.74;52.01
36304;BME280;22335;49.800;8.596;2022-09-09T10:36:28;99610.16;;;20.82;52.31
36304;BME280;22335;49.800;8.596;2022-09-09T10:43:24;99821.31;;;22.30;51.82
36304;BME280;22335;49.800;8.596;2022-09-09T10:50:46;99387.09;;;19.48;52.00
36304;BME280;22335;49.800;8.596;2022-09-09T10:57:49;99784.22;;;21.93;52.64
36304;BME280;22335;49.800;8.596;2022-09-09T11:04:41;99350.38;;;19.09;52.32
36304;BME280;22335;49.800;8.596;2022-09-09T11:11:33;99695.78;;;21.52;52.34
36304;BME280;22335;49.800;8.596;2022-09-09T11:18:29;99283.81;;;19.05;51.98
36304;BME280;22335;49.800;8.596;2022-09-09T11:25:20;99640.59;;;21.58;51.00
36304;BME280;22335;49.800;8.596;2022-09-09T11:32:22;99647.53;;;21.71;50.79
36304;BME280;22335;49.800;8.596;2022-09-09T11:39:56;99893.69;;;23.73;50.62
36304;BME280;22335;49.800;8.596;2022-09-09T11:47:16;99802.00;;;23.27;49.87
36304;BME280;22335;49.800;8.596;2022-09-09T11:54:28;100032.09;;;24.77;49.97
36304;BME280;22335;49.800;8.596;2022-09-09T12:01:45;100002.03;;;24.56;49.74
36304;BME280;22335;49.800;8.596;2022-09-09T12:08:35;99815.22;;;23.37;48.71
36304;BME280;22335;49.800;8.596;2022-09-09T12:15:26;99944.97;;;24.05;48.99
36304;BME280;22335;49.800;8.596;2022-09-09T12:22:24;99666.97;;;22.39;48.65
36304;BME280;22335;49.800;8.596;2022-09-09T12:29:25;99691.06;;;22.61;48.81
36304;BME280;22335;49.800;8.596;2022-09-09T12:36:18;99906.66;;;24.02;47.71
36304;BME280;22335;49.800;8.596;2022-09-09T12:43:22;99893.69;;;23.73;48.19
36304;BME280;22335;49.800;8.596;2022-09-09T12:50:17;99662.16;;;22.36;47.92
36304;BME280;22335;49.800;8.596;2022-09-09T12:57:05;99602.75;;;21.83;47.31
36304;BME280;22335;49.800;8.596;2022-09-09T13:04:00;99432.09;;;20.98;46.95
36304;BME280;22335;49.800;8.596;2022-09-09T13:11:02;99680.28;;;22.60;46.70
36304;BME280;22335;49.800;8.596;2022-09-09T13:17:54;99698.97;;;22.55;46.42
36304;BME280;22335;49.800;8.596;2022-09-09T13:24:45;100040.59;;;24.98;45.55
36304;BME280;22335;49.800;8.596;2022-09-09T13:31:36;99775.38;;;23.40;45.93
36304;BME280;22335;49.800;8.596;2022-09-09T13:38:23;100027.03;;;25.07;46.41
36304;BME280;22335;49.800;8.596;2022-09-09T13:45:19;99758.50;;;23.25;46.69
36304;BME280;22335;49.800;8.596;2022-09-09T13:52:11;99857.03;;;23.81;47.24
36304;BME280;22335;49.800;8.596;2022-09-09T13:58:58;99931.59;;;24.36;46.22
36304;BME280;22335;49.800;8.596;2022-09-09T14:05:47;99949.25;;;24.44;47.99
36304;BME280;22335;49.800;8.596;2022-09-09T14:12:34;99838.41;;;23.44;47.92
36304;BME280;22335;49.800;8.596;2022-09-09T14:19:21;99701.66;;;22.11;48.04
36304;BME280;22335;49.800;8.596;2022-09-09T14:26:11;99651.19;;;21.45;48.18
36304;BME280;22335;49.800;8.596;2022-09-09T14:32:57;99464.00;;;19.97;48.12
36304;BME280;22335;49.800;8.596;2022-09-09T14:39:53;100038.53;;;23.78;48.23
36304;BME280;22335;49.800;8.596;2022-09-09T14:46:45;99801.69;;;21.90;48.70
36304;BME280;22335;49.800;8.596;2022-09-09T14:53:43;99287.94;;;18.50;49.17
36304;BME280;22335;49.800;8.596;2022-09-09T15:00:48;99345.41;;;18.76;49.24
36304;BME280;22335;49.800;8.596;2022-09-09T15:07:57;99226.53;;;18.05;49.37
36304;BME280;22335;49.800;8.596;2022-09-09T15:15:26;99311.00;;;18.57;49.92
36304;BME280;22335;49.800;8.596;2022-09-09T15:22:28;99595.94;;;20.60;49.50
36304;BME280;22335;49.800;8.596;2022-09-09T15:29:40;100016.44;;;23.28;50.19
36304;BME280;22335;49.800;8.596;2022-09-09T15:36:40;100022.31;;;23.19;50.17
36304;BME280;22335;49.800;8.596;2022-09-09T15:43:59;99362.16;;;18.63;50.73
36304;BME280;22335;49.800;8.596;2022-09-09T15:51:01;99290.41;;;18.16;50.90
36304;BME280;22335;49.800;8.596;2022-09-09T15:58:47;99739.19;;;21.04;50.49
36304;BME280;22335;49.800;8.596;2022-09-09T16:05:59;99322.31;;;17.90;50.08
36304;BME280;22335;49.800;8.596;2022-09-09T16:13:35;99436.41;;;18.58;50.39
36304;BME280;22335;49.800;8.596;2022-09-09T16:21:07;100044.53;;;22.52;50.65
36304;BME280;22335;49.800;8.596;2022-09-09T16:27:52;100008.00;;;22.30;50.80
36304;BME280;22335;49.800;8.596;2022-09-09T16:34:38;100043.31;;;22.49;50.62
36304;BME280;22335;49.800;8.596;2022-09-09T16:41:28;100049.13;;;22.41;51.11
36304;BME280;22335;49.800;8.596;2022-09-09T16:48:14;100064.13;;;22.32;50.99
36304;BME280;22335;49.800;8.596;2022-09-09T16:54:59;100054.75;;;22.18;51.04
36304;BME280;22335;49.800;8.596;2022-09-09T17:01:49;100033.94;;;21.88;51.53
36304;BME280;22335;49.800;8.596;2022-09-09T17:08:36;100039.84;;;21.83;51.37
36304;BME280;22335;49.800;8.596;2022-09-09T17:15:22;100054.22;;;21.89;51.78
36304;BME280;22335;49.800;8.596;2022-09-09T17:22:11;100053.06;;;21.90;52.01
36304;BME280;22335;49.800;8.596;2022-09-09T17:28:59;99972.75;;;21.27;52.55
36304;BME280;22335;49.800;8.596;2022-09-09T17:35:45;100082.28;;;22.00;52.68
36304;BME280;22335;49.800;8.596;2022-09-09T17:42:34;100088.25;;;22.02;52.57
36304;BME280;22335;49.800;8.596;2022-09-09T17:49:19;100096.59;;;22.21;52.54
36304;BME280;22335;49.800;8.596;2022-09-09T17:56:07;100078.94;;;22.37;52.72
36304;BME280;22335;49.800;8.596;2022-09-09T18:02:56;100086.66;;;22.47;52.60
36304;BME280;22335;49.800;8.596;2022-09-09T18:09:42;100104.97;;;22.48;52.51
36304;BME280;22335;49.800;8.596;2022-09-09T18:16:30;100110.84;;;22.39;52.54
36304;BME280;22335;49.800;8.596;2022-09-09T18:23:19;100137.59;;;22.21;52.58
36304;BME280;22335;49.800;8.596;2022-09-09T18:30:06;100132.56;;;21.87;53.18
36304;BME280;22335;49.800;8.596;2022-09-09T18:36:54;100169.75;;;21.37;53.69
36304;BME280;22335;49.800;8.596;2022-09-09T18:43:43;100127.19;;;20.66;54.11
36304;BME280;22335;49.800;8.596;2022-09-09T18:50:29;100183.41;;;20.75;54.49
36304;BME280;22335;49.800;8.596;2022-09-09T18:57:15;100181.13;;;20.49;55.14
36304;BME280;22335;49.800;8.596;2022-09-09T19:04:05;100168.84;;;20.34;55.44
36304;BME280;22335;49.800;8.596;2022-09-09T19:10:52;100182.00;;;20.21;55.98
36304;BME280;22335;49.800;8.596;2022-09-09T19:17:37;100203.00;;;20.07;56.15
36304;BME280;22335;49.800;8.596;2022-09-09T19:24:27;100218.06;;;20.06;56.44
36304;BME280;22335;49.800;8.596;2022-09-09T19:31:15;100243.25;;;20.13;56.69
36304;BME280;22335;49.800;8.596;2022-09-09T19:38:01;100141.84;;;19.47;56.78
36304;BME280;22335;49.800;8.596;2022-09-09T19:44:50;100225.47;;;19.86;57.26
36304;BME280;22335;49.800;8.596;2022-09-09T19:51:37;100202.13;;;19.74;57.62
36304;BME280;22335;49.800;8.596;2022-09-09T19:58:23;100194.28;;;19.76;56.17
36304;BME280;22335;49.800;8.596;2022-09-09T20:05:11;100199.72;;;19.61;57.67
36304;BME280;22335;49.800;8.596;2022-09-09T20:11:57;100204.13;;;19.62;58.11
36304;BME280;22335;49.800;8.596;2022-09-09T20:18:45;100175.25;;;19.50;58.19
36304;BME280;22335;49.800;8.596;2022-09-09T20:25:37;100198.19;;;19.63;58.49
36304;BME280;22335;49.800;8.596;2022-09-09T20:32:22;100199.25;;;19.58;58.87
36304;BME280;22335;49.800;8.596;2022-09-09T20:39:10;100171.47;;;19.43;59.57
36304;BME280;22335;49.800;8.596;2022-09-09T20:46:02;100177.91;;;19.47;60.00
36304;BME280;22335;49.800;8.596;2022-09-09T20:52:48;100196.88;;;19.45;59.60
36304;BME280;22335;49.800;8.596;2022-09-09T20:59:34;100194.78;;;19.42;60.24
36304;BME280;22335;49.800;8.596;2022-09-09T21:06:22;100178.97;;;19.42;60.14
36304;BME280;22335;49.800;8.596;2022-09-09T21:13:08;100182.09;;;19.41;59.74
36304;BME280;22335;49.800;8.596;2022-09-09T21:19:53;100180.38;;;19.36;59.97
36304;BME280;22335;49.800;8.596;2022-09-09T21:26:41;100174.75;;;19.32;60.12
36304;BME280;22335;49.800;8.596;2022-09-09T21:33:27;100165.25;;;19.33;60.46
36304;BME280;22335;49.800;8.596;2022-09-09T21:40:13;100167.59;;;19.19;60.53
36304;BME280;22335;49.800;8.596;2022-09-09T21:47:01;100177.19;;;19.22;61.02
36304;BME280;22335;49.800;8.596;2022-09-09T21:53:47;100185.03;;;19.20;61.11
36304;BME280;22335;49.800;8.596;2022-09-09T22:00:33;100193.34;;;19.20;60.71
36304;BME280;22335;49.800;8.596;2022-09-09T22:07:21;100174.19;;;19.15;61.05
36304;BME280;22335;49.800;8.596;2022-09-09T22:14:07;100161.16;;;19.03;61.23
36304;BME280;22335;49.800;8.596;2022-09-09T22:20:52;100179.94;;;19.22;61.23
36304;BME280;22335;49.800;8.596;2022-09-09T22:27:40;100132.34;;;19.20;60.54
36304;BME280;22335;49.800;8.596;2022-09-09T22:34:26;100153.47;;;19.37;60.57
36304;BME280;22335;49.800;8.596;2022-09-09T22:41:12;100125.66;;;19.21;60.53
36304;BME280;22335;49.800;8.596;2022-09-09T22:48:02;100173.16;;;19.47;60.90
36304;BME280;22335;49.800;8.596;2022-09-09T22:54:48;100178.38;;;19.49;60.69
36304;BME280;22335;49.800;8.596;2022-09-09T23:01:34;100176.66;;;19.44;60.78
36304;BME280;22335;49.800;8.596;2022-09-09T23:08:23;100148.78;;;19.12;61.72
36304;BME280;22335;49.800;8.596;2022-09-09T23:15:13;100202.31;;;19.41;61.58
36304;BME280;22335;49.800;8.596;2022-09-09T23:21:58;100204.03;;;19.46;61.45
36304;BME280;22335;49.800;8.596;2022-09-09T23:28:47;100199.78;;;19.48;61.92
36304;BME280;22335;49.800;8.596;2022-09-09T23:35:35;100199.50;;;19.53;62.02
36304;BME280;22335;49.800;8.596;2022-09-09T23:42:21;100212.47;;;19.49;62.03
36304;BME280;22335;49.800;8.596;2022-09-09T23:49:10;100202.06;;;19.46;62.32
36304;BME280;22335;49.800;8.596;2022-09-09T23:55:55;100200.47;;;19.45;62.39
